TimePST,TemperatureF,Dew PointF,Humidity,Sea Level PressureIn,VisibilityMPH,Wind Direction,Wind SpeedMPH,Gust SpeedMPH,PrecipitationIn,Events,Conditions,WindDirDegrees,DateUTC
12:53 AM,32.0,27.0,82,30.43,10.0,Calm,Calm,-,N/A,,Clear,0,2013-12-01 08:53:00
1:53 AM,33.1,28.9,85,30.43,10.0,Calm,Calm,-,N/A,,Clear,0,2013-12-01 09:53:00
2:53 AM,28.9,25.0,85,30.45,10.0,Calm,Calm,-,N/A,,Clear,0,2013-12-01 10:53:00
3:53 AM,30.9,28.0,89,30.44,10.0,SSW,4.6,-,N/A,,Mostly Cloudy,200,2013-12-01 11:53:00
4:53 AM,33.1,28.9,85,30.45,10.0,Calm,Calm,-,N/A,,Overcast,0,2013-12-01 12:53:00
5:53 AM,30.0,26.1,85,30.47,10.0,NNE,5.8,-,N/A,,Clear,30,2013-12-01 13:53:00
6:53 AM,30.9,27.0,85,30.46,10.0,North,3.5,-,N/A,,Partly Cloudy,10,2013-12-01 14:53:00
7:53 AM,28.9,26.1,89,30.48,10.0,ENE,4.6,-,N/A,,Clear,70,2013-12-01 15:53:00
8:53 AM,34.0,30.9,89,30.51,10.0,Calm,Calm,-,N/A,,Clear,0,2013-12-01 16:53:00
9:53 AM,39.9,34.0,79,30.49,10.0,South,9.2,-,N/A,,Clear,190,2013-12-01 17:53:00
10:53 AM,42.1,33.1,70,30.48,10.0,SSW,4.6,-,N/A,,Clear,200,2013-12-01 18:53:00
11:53 AM,48.0,35.1,61,30.43,10.0,WSW,3.5,-,N/A,,Clear,240,2013-12-01 19:53:00
12:53 PM,53.1,36.0,52,30.40,10.0,Calm,Calm,-,N/A,,Clear,0,2013-12-01 20:53:00
1:53 PM,55.9,37.0,49,30.36,10.0,Calm,Calm,-,N/A,,Clear,0,2013-12-01 21:53:00
2:53 PM,57.0,37.0,47,30.35,10.0,South,3.5,-,N/A,,Clear,190,2013-12-01 22:53:00
3:53 PM,55.0,36.0,49,30.33,10.0,South,5.8,-,N/A,,Clear,180,2013-12-01 23:53:00
4:53 PM,46.0,34.0,63,30.32,10.0,SW,3.5,-,N/A,,Clear,220,2013-12-02 00:53:00
5:53 PM,44.1,33.1,65,30.32,10.0,Calm,Calm,-,N/A,,Clear,0,2013-12-02 01:53:00
6:53 PM,41.0,32.0,70,30.30,10.0,SSW,3.5,-,N/A,,Clear,210,2013-12-02 02:53:00
7:53 PM,36.0,28.9,76,30.32,10.0,SSW,3.5,-,N/A,,Clear,200,2013-12-02 03:53:00
8:53 PM,35.1,28.9,78,30.32,10.0,Calm,Calm,-,N/A,,Clear,0,2013-12-02 04:53:00
9:53 PM,35.1,30.9,85,30.30,10.0,SW,6.9,-,N/A,,Clear,230,2013-12-02 05:53:00
10:53 PM,33.1,28.9,85,30.29,10.0,WSW,9.2,-,N/A,,Clear,250,2013-12-02 06:53:00
11:53 PM,33.1,30.0,89,30.26,9.0,SSW,6.9,-,N/A,,Clear,200,2013-12-02 07:53:00